sensor_id;sensor_type;location;lat;lon;timestamp;temperature;humidity
5492;DHT22;2768;53.540;10.224;2024-01-15T00:02:30;1.90;99.90
5492;DHT22;2768;53.540;10.224;2024-01-15T00:08:23;1.90;99.90
5492;DHT22;2768;53.540;10.224;2024-01-15T00:14:16;1.90;99.90
5492;DHT22;2768;53.540;10.224;2024-01-15T00:20:14;1.80;99.90
5492;DHT22;2768;53.540;10.224;2024-01-15T00:26:07;1.80;99.90
5492;DHT22;2768;53.540;10.224;2024-01-15T00:32:01;1.90;99.90
5492;DHT22;2768;53.540;10.224;2024-01-15T00:37:56;1.70;99.90
5492;DHT22;2768;53.540;10.224;2024-01-15T00:43:49;1.60;99.90
5492;DHT22;2768;53.540;10.224;2024-01-15T00:49:42;1.60;99.90
5492;DHT22;2768;53.540;10.224;2024-01-15T00:55:37;1.70;99.90
5492;DHT22;2768;53.540;10.224;2024-01-15T01:01:31;1.70;99.90
5492;DHT22;2768;53.540;10.224;2024-01-15T01:07:24;1.60;99.90
5492;DHT22;2768;53.540;10.224;2024-01-15T01:13:19;1.60;99.90
5492;DHT22;2768;53.540;10.224;2024-01-15T01:19:12;1.60;99.90
5492;DHT22;2768;53.540;10.224;2024-01-15T01:25:06;1.50;99.90
5492;DHT22;2768;53.540;10.224;2024-01-15T01:31:01;1.60;99.90
5492;DHT22;2768;53.540;10.224;2024-01-15T01:36:55;1.70;99.90
5492;DHT22;2768;53.540;10.224;2024-01-15T01:42:48;1.80;99.90
5492;DHT22;2768;53.540;10.224;2024-01-15T01:48:42;1.90;99.90
5492;DHT22;2768;53.540;10.224;2024-01-15T01:54:37;1.80;99.90
5492;DHT22;2768;53.540;10.224;2024-01-15T02:00:32;1.90;99.90
5492;DHT22;2768;53.540;10.224;2024-01-15T02:06:28;2.00;99.90
5492;DHT22;2768;53.540;10.224;2024-01-15T02:12:22;2.10;99.90
5492;DHT22;2768;53.540;10.224;2024-01-15T02:18:15;2.00;99.90
5492;DHT22;2768;53.540;10.224;2024-01-15T02:24:10;2.00;99.90
5492;DHT22;2768;53.540;10.224;2024-01-15T02:30:05;1.80;99.90
5492;DHT22;2768;53.540;10.224;2024-01-15T02:36:00;1.70;99.90
5492;DHT22;2768;53.540;10.224;2024-01-15T02:41:54;1.60;99.90
5492;DHT22;2768;53.540;10.224;2024-01-15T02:47:49;1.60;99.90
5492;DHT22;2768;53.540;10.224;2024-01-15T02:53:42;1.70;99.90
5492;DHT22;2768;53.540;10.224;2024-01-15T02:59:37;1.80;99.90
5492;DHT22;2768;53.540;10.224;2024-01-15T03:05:30;1.90;99.90
5492;DHT22;2768;53.540;10.224;2024-01-15T03:11:23;2.00;99.90
5492;DHT22;2768;53.540;10.224;2024-01-15T03:17:19;2.00;99.90
5492;DHT22;2768;53.540;10.224;2024-01-15T03:23:12;2.00;99.90
5492;DHT22;2768;53.540;10.224;2024-01-15T03:29:05;2.00;99.90
5492;DHT22;2768;53.540;10.224;2024-01-15T03:35:00;2.00;99.90
5492;DHT22;2768;53.540;10.224;2024-01-15T03:40:54;2.00;99.90
5492;DHT22;2768;53.540;10.224;2024-01-15T03:46:47;2.00;99.90
5492;DHT22;2768;53.540;10.224;2024-01-15T03:52:41;2.00;99.90
5492;DHT22;2768;53.540;10.224;2024-01-15T03:58:35;1.90;99.90
5492;DHT22;2768;53.540;10.224;2024-01-15T04:04:28;1.90;99.90
5492;DHT22;2768;53.540;10.224;2024-01-15T04:10:22;2.00;99.90
5492;DHT22;2768;53.540;10.224;2024-01-15T04:16:16;2.00;99.90
5492;DHT22;2768;53.540;10.224;2024-01-15T04:22:09;2.00;99.90
5492;DHT22;2768;53.540;10.224;2024-01-15T04:28:04;2.00;99.90
5492;DHT22;2768;53.540;10.224;2024-01-15T04:33:57;2.10;99.90
5492;DHT22;2768;53.540;10.224;2024-01-15T04:39:52;2.00;99.90
5492;DHT22;2768;53.540;10.224;2024-01-15T04:45:48;2.10;99.90
5492;DHT22;2768;53.540;10.224;2024-01-15T04:51:42;2.10;99.90
5492;DHT22;2768;53.540;10.224;2024-01-15T04:57:35;2.10;99.90
5492;DHT22;2768;53.540;10.224;2024-01-15T05:03:30;2.10;99.90
5492;DHT22;2768;53.540;10.224;2024-01-15T05:09:23;2.10;99.90
5492;DHT22;2768;53.540;10.224;2024-01-15T05:15:16;2.10;99.90
5492;DHT22;2768;53.540;10.224;2024-01-15T05:21:11;2.10;99.90
5492;DHT22;2768;53.540;10.224;2024-01-15T05:27:04;2.10;99.90
5492;DHT22;2768;53.540;10.224;2024-01-15T05:32:58;2.10;99.90
5492;DHT22;2768;53.540;10.224;2024-01-15T05:38:53;2.10;99.90
5492;DHT22;2768;53.540;10.224;2024-01-15T05:44:46;2.10;99.90
5492;DHT22;2768;53.540;10.224;2024-01-15T05:50:39;2.00;99.90
5492;DHT22;2768;53.540;10.224;2024-01-15T05:56:34;2.00;99.90
5492;DHT22;2768;53.540;10.224;2024-01-15T06:02:28;2.00;99.90
5492;DHT22;2768;53.540;10.224;2024-01-15T06:08:21;2.00;99.90
5492;DHT22;2768;53.540;10.224;2024-01-15T06:14:15;2.00;99.90
5492;DHT22;2768;53.540;10.224;2024-01-15T06:20:09;2.10;99.90
5492;DHT22;2768;53.540;10.224;2024-01-15T06:26:03;2.10;99.90
5492;DHT22;2768;53.540;10.224;2024-01-15T06:31:58;2.10;99.90
5492;DHT22;2768;53.540;10.224;2024-01-15T06:37:51;2.10;99.90
5492;DHT22;2768;53.540;10.224;2024-01-15T06:43:45;2.20;99.90
5492;DHT22;2768;53.540;10.224;2024-01-15T06:49:39;2.20;99.90
5492;DHT22;2768;53.540;10.224;2024-01-15T06:55:33;2.20;99.90
5492;DHT22;2768;53.540;10.224;2024-01-15T07:01:26;2.30;99.90
5492;DHT22;2768;53.540;10.224;2024-01-15T07:07:21;2.30;99.90
5492;DHT22;2768;53.540;10.224;2024-01-15T07:13:14;2.30;99.90
5492;DHT22;2768;53.540;10.224;2024-01-15T07:19:08;2.30;99.90
5492;DHT22;2768;53.540;10.224;2024-01-15T07:25:03;2.30;99.90
5492;DHT22;2768;53.540;10.224;2024-01-15T07:30:58;2.30;99.90
5492;DHT22;2768;53.540;10.224;2024-01-15T07:36:53;2.30;99.90
5492;DHT22;2768;53.540;10.224;2024-01-15T07:42:47;2.30;99.90
5492;DHT22;2768;53.540;10.224;2024-01-15T07:48:41;2.30;99.90
5492;DHT22;2768;53.540;10.224;2024-01-15T07:54:35;2.40;99.90
5492;DHT22;2768;53.540;10.224;2024-01-15T08:00:30;2.40;99.90
5492;DHT22;2768;53.540;10.224;2024-01-15T08:06:23;2.40;99.90
5492;DHT22;2768;53.540;10.224;2024-01-15T08:12:17;2.50;99.90
5492;DHT22;2768;53.540;10.224;2024-01-15T08:18:11;2.50;99.90
5492;DHT22;2768;53.540;10.224;2024-01-15T08:24:05;2.50;99.90
5492;DHT22;2768;53.540;10.224;2024-01-15T08:29:58;2.50;99.90
5492;DHT22;2768;53.540;10.224;2024-01-15T08:35:53;2.60;99.90
5492;DHT22;2768;53.540;10.224;2024-01-15T08:41:46;2.50;99.90
5492;DHT22;2768;53.540;10.224;2024-01-15T08:47:39;2.50;99.90
5492;DHT22;2768;53.540;10.224;2024-01-15T08:53:34;2.50;99.90
5492;DHT22;2768;53.540;10.224;2024-01-15T08:59:27;2.40;99.90
5492;DHT22;2768;53.540;10.224;2024-01-15T09:05:20;2.40;99.90
5492;DHT22;2768;53.540;10.224;2024-01-15T09:11:15;2.30;99.90
5492;DHT22;2768;53.540;10.224;2024-01-15T09:17:08;2.30;99.90
5492;DHT22;2768;53.540;10.224;2024-01-15T09:23:02;2.10;99.90
5492;DHT22;2768;53.540;10.224;2024-01-15T09:28:57;2.00;99.90
5492;DHT22;2768;53.540;10.224;2024-01-15T09:34:50;2.00;99.90
5492;DHT22;2768;53.540;10.224;2024-01-15T09:40:45;1.90;99.90
5492;DHT22;2768;53.540;10.224;2024-01-15T09:46:41;2.00;99.90
5492;DHT22;2768;53.540;10.224;2024-01-15T09:52:36;1.90;99.90
5492;DHT22;2768;53.540;10.224;2024-01-15T09:58:30;1.80;99.90
5492;DHT22;2768;53.540;10.224;2024-01-15T10:04:25;1.70;99.90
5492;DHT22;2768;53.540;10.224;2024-01-15T10:10:18;1.70;99.90
5492;DHT22;2768;53.540;10.224;2024-01-15T10:16:14;1.80;99.90
5492;DHT22;2768;53.540;10.224;2024-01-15T10:22:09;1.80;99.90
5492;DHT22;2768;53.540;10.224;2024-01-15T10:28:04;1.70;99.90
5492;DHT22;2768;53.540;10.224;2024-01-15T10:34:10;1.80;99.90
5492;DHT22;2768;53.540;10.224;2024-01-15T10:40:06;1.80;99.90
5492;DHT22;2768;53.540;10.224;2024-01-15T10:46:01;1.90;99.90
5492;DHT22;2768;53.540;10.224;2024-01-15T10:51:56;2.00;99.90
5492;DHT22;2768;53.540;10.224;2024-01-15T10:57:52;2.10;99.90
5492;DHT22;2768;53.540;10.224;2024-01-15T11:03:48;2.20;99.90
5492;DHT22;2768;53.540;10.224;2024-01-15T11:09:42;2.20;99.90
5492;DHT22;2768;53.540;10.224;2024-01-15T11:16:01;2.10;99.90
5492;DHT22;2768;53.540;10.224;2024-01-15T11:21:55;2.20;99.90
5492;DHT22;2768;53.540;10.224;2024-01-15T11:27:51;2.00;99.90
5492;DHT22;2768;53.540;10.224;2024-01-15T11:33:49;2.00;99.90
5492;DHT22;2768;53.540;10.224;2024-01-15T11:39:43;1.90;99.90
5492;DHT22;2768;53.540;10.224;2024-01-15T11:45:37;2.10;99.90
5492;DHT22;2768;53.540;10.224;2024-01-15T11:51:32;1.90;99.90
5492;DHT22;2768;53.540;10.224;2024-01-15T11:57:33;2.00;99.90
5492;DHT22;2768;53.540;10.224;2024-01-15T12:03:27;2.10;99.90
5492;DHT22;2768;53.540;10.224;2024-01-15T12:09:22;2.00;99.90
5492;DHT22;2768;53.540;10.224;2024-01-15T12:15:16;2.10;99.90
5492;DHT22;2768;53.540;10.224;2024-01-15T12:21:10;2.30;99.90
5492;DHT22;2768;53.540;10.224;2024-01-15T12:27:05;2.20;99.90
5492;DHT22;2768;53.540;10.224;2024-01-15T12:32:58;2.30;99.90
5492;DHT22;2768;53.540;10.224;2024-01-15T12:38:59;2.30;99.90
5492;DHT22;2768;53.540;10.224;2024-01-15T12:44:55;2.30;99.90
5492;DHT22;2768;53.540;10.224;2024-01-15T12:50:49;2.30;99.90
5492;DHT22;2768;53.540;10.224;2024-01-15T12:56:45;2.30;99.90
5492;DHT22;2768;53.540;10.224;2024-01-15T13:02:39;2.30;99.90
5492;DHT22;2768;53.540;10.224;2024-01-15T13:08:33;2.20;99.90
5492;DHT22;2768;53.540;10.224;2024-01-15T13:14:26;2.30;99.90
5492;DHT22;2768;53.540;10.224;2024-01-15T13:20:21;2.30;99.90
5492;DHT22;2768;53.540;10.224;2024-01-15T13:26:14;2.30;99.90
5492;DHT22;2768;53.540;10.224;2024-01-15T13:32:13;2.20;99.90
5492;DHT22;2768;53.540;10.224;2024-01-15T13:38:12;2.30;99.90
5492;DHT22;2768;53.540;10.224;2024-01-15T13:44:05;2.30;99.90
5492;DHT22;2768;53.540;10.224;2024-01-15T13:49:58;2.30;99.90
5492;DHT22;2768;53.540;10.224;2024-01-15T13:55:53;2.30;99.90
5492;DHT22;2768;53.540;10.224;2024-01-15T14:01:47;2.20;99.90
5492;DHT22;2768;53.540;10.224;2024-01-15T14:07:40;2.20;99.90
5492;DHT22;2768;53.540;10.224;2024-01-15T14:13:36;2.30;99.90
5492;DHT22;2768;53.540;10.224;2024-01-15T14:19:29;2.20;99.90
5492;DHT22;2768;53.540;10.224;2024-01-15T14:25:23;2.10;99.90
5492;DHT22;2768;53.540;10.224;2024-01-15T14:31:18;2.10;99.90
5492;DHT22;2768;53.540;10.224;2024-01-15T14:37:12;2.30;99.90
5492;DHT22;2768;53.540;10.224;2024-01-15T14:43:06;2.30;99.90
5492;DHT22;2768;53.540;10.224;2024-01-15T14:49:01;2.30;99.90
5492;DHT22;2768;53.540;10.224;2024-01-15T14:54:54;2.10;99.90
5492;DHT22;2768;53.540;10.224;2024-01-15T15:00:48;2.20;99.90
5492;DHT22;2768;53.540;10.224;2024-01-15T15:06:42;2.00;99.90
5492;DHT22;2768;53.540;10.224;2024-01-15T15:12:36;2.00;99.90
5492;DHT22;2768;53.540;10.224;2024-01-15T15:18:29;2.00;99.90
5492;DHT22;2768;53.540;10.224;2024-01-15T15:24:24;2.00;99.90
5492;DHT22;2768;53.540;10.224;2024-01-15T15:30:17;2.00;99.90
5492;DHT22;2768;53.540;10.224;2024-01-15T15:36:10;1.90;99.90
5492;DHT22;2768;53.540;10.224;2024-01-15T15:42:05;1.90;99.90
5492;DHT22;2768;53.540;10.224;2024-01-15T15:47:58;1.90;99.90
5492;DHT22;2768;53.540;10.224;2024-01-15T15:53:52;1.80;99.90
5492;DHT22;2768;53.540;10.224;2024-01-15T15:59:46;1.90;99.90
5492;DHT22;2768;53.540;10.224;2024-01-15T16:05:40;1.90;99.90
5492;DHT22;2768;53.540;10.224;2024-01-15T16:11:43;1.90;99.90
5492;DHT22;2768;53.540;10.224;2024-01-15T16:17:41;1.80;99.90
5492;DHT22;2768;53.540;10.224;2024-01-15T16:23:54;1.80;99.90
5492;DHT22;2768;53.540;10.224;2024-01-15T16:30:08;1.80;99.90
5492;DHT22;2768;53.540;10.224;2024-01-15T16:36:18;1.80;99.90
5492;DHT22;2768;53.540;10.224;2024-01-15T16:42:13;1.90;99.90
5492;DHT22;2768;53.540;10.224;2024-01-15T16:48:07;1.90;99.90
5492;DHT22;2768;53.540;10.224;2024-01-15T16:54:02;1.90;99.90
5492;DHT22;2768;53.540;10.224;2024-01-15T16:59:55;1.70;99.90
5492;DHT22;2768;53.540;10.224;2024-01-15T17:05:48;1.80;99.90
5492;DHT22;2768;53.540;10.224;2024-01-15T17:11:43;1.90;99.90
5492;DHT22;2768;53.540;10.224;2024-01-15T17:17:36;1.80;99.90
5492;DHT22;2768;53.540;10.224;2024-01-15T17:23:30;1.60;99.90
5492;DHT22;2768;53.540;10.224;2024-01-15T17:29:24;1.60;99.90
5492;DHT22;2768;53.540;10.224;2024-01-15T17:35:18;1.70;99.90
5492;DHT22;2768;53.540;10.224;2024-01-15T17:41:11;1.70;99.90
5492;DHT22;2768;53.540;10.224;2024-01-15T17:47:07;1.70;99.90
5492;DHT22;2768;53.540;10.224;2024-01-15T17:53:00;1.60;99.90
5492;DHT22;2768;53.540;10.224;2024-01-15T17:58:53;1.60;99.90
5492;DHT22;2768;53.540;10.224;2024-01-15T18:04:49;1.70;99.90
5492;DHT22;2768;53.540;10.224;2024-01-15T18:10:42;1.60;99.90
5492;DHT22;2768;53.540;10.224;2024-01-15T18:16:36;1.70;99.90
5492;DHT22;2768;53.540;10.224;2024-01-15T18:22:30;1.80;99.90
5492;DHT22;2768;53.540;10.224;2024-01-15T18:28:25;1.70;99.90
5492;DHT22;2768;53.540;10.224;2024-01-15T18:34:19;1.80;99.90
5492;DHT22;2768;53.540;10.224;2024-01-15T18:40:13;1.80;99.90
5492;DHT22;2768;53.540;10.224;2024-01-15T18:46:07;1.90;99.90
5492;DHT22;2768;53.540;10.224;2024-01-15T18:52:00;1.80;99.90
5492;DHT22;2768;53.540;10.224;2024-01-15T18:57:55;1.60;99.90
5492;DHT22;2768;53.540;10.224;2024-01-15T19:03:51;1.70;99.90
5492;DHT22;2768;53.540;10.224;2024-01-15T19:09:45;1.60;99.90
5492;DHT22;2768;53.540;10.224;2024-01-15T19:15:39;1.40;99.90
5492;DHT22;2768;53.540;10.224;2024-01-15T19:21:32;1.40;99.90
5492;DHT22;2768;53.540;10.224;2024-01-15T19:27:26;1.50;99.90
5492;DHT22;2768;53.540;10.224;2024-01-15T19:33:22;1.50;99.90
5492;DHT22;2768;53.540;10.224;2024-01-15T19:39:15;1.60;99.90
5492;DHT22;2768;53.540;10.224;2024-01-15T19:45:08;1.50;99.90
5492;DHT22;2768;53.540;10.224;2024-01-15T19:51:03;1.60;99.90
5492;DHT22;2768;53.540;10.224;2024-01-15T19:56:56;1.60;99.90
5492;DHT22;2768;53.540;10.224;2024-01-15T20:02:50;1.50;99.90
5492;DHT22;2768;53.540;10.224;2024-01-15T20:08:45;1.50;99.90
5492;DHT22;2768;53.540;10.224;2024-01-15T20:14:38;1.60;99.90
5492;DHT22;2768;53.540;10.224;2024-01-15T20:20:31;1.60;99.90
5492;DHT22;2768;53.540;10.224;2024-01-15T20:26:26;1.60;99.90
5492;DHT22;2768;53.540;10.224;2024-01-15T20:32:20;1.40;99.90
5492;DHT22;2768;53.540;10.224;2024-01-15T20:38:13;1.40;99.90
5492;DHT22;2768;53.540;10.224;2024-01-15T20:44:08;1.30;99.90
5492;DHT22;2768;53.540;10.224;2024-01-15T20:50:01;1.30;99.90
5492;DHT22;2768;53.540;10.224;2024-01-15T20:55:55;1.30;99.90
5492;DHT22;2768;53.540;10.224;2024-01-15T21:01:50;1.30;99.90
5492;DHT22;2768;53.540;10.224;2024-01-15T21:07:43;1.20;99.90
5492;DHT22;2768;53.540;10.224;2024-01-15T21:13:37;1.50;99.90
5492;DHT22;2768;53.540;10.224;2024-01-15T21:19:31;1.60;99.90
5492;DHT22;2768;53.540;10.224;2024-01-15T21:25:25;1.40;99.90
5492;DHT22;2768;53.540;10.224;2024-01-15T21:31:18;1.60;99.90
5492;DHT22;2768;53.540;10.224;2024-01-15T21:37:13;1.60;99.90
5492;DHT22;2768;53.540;10.224;2024-01-15T21:43:06;1.70;99.90
5492;DHT22;2768;53.540;10.224;2024-01-15T21:48:59;1.70;99.90
5492;DHT22;2768;53.540;10.224;2024-01-15T21:54:54;1.70;99.90
5492;DHT22;2768;53.540;10.224;2024-01-15T22:00:47;1.70;99.90
5492;DHT22;2768;53.540;10.224;2024-01-15T22:06:40;1.60;99.90
5492;DHT22;2768;53.540;10.224;2024-01-15T22:12:35;1.40;99.90
5492;DHT22;2768;53.540;10.224;2024-01-15T22:18:28;1.50;99.90
5492;DHT22;2768;53.540;10.224;2024-01-15T22:24:21;1.50;99.90
5492;DHT22;2768;53.540;10.224;2024-01-15T22:30:16;1.60;99.90
5492;DHT22;2768;53.540;10.224;2024-01-15T22:36:09;1.50;99.90
5492;DHT22;2768;53.540;10.224;2024-01-15T22:42:03;1.60;99.90
5492;DHT22;2768;53.540;10.224;2024-01-15T22:47:58;1.50;99.90
5492;DHT22;2768;53.540;10.224;2024-01-15T22:53:51;1.30;99.90
5492;DHT22;2768;53.540;10.224;2024-01-15T22:59:45;1.30;99.90
5492;DHT22;2768;53.540;10.224;2024-01-15T23:05:40;1.10;99.90
5492;DHT22;2768;53.540;10.224;2024-01-15T23:11:34;1.10;99.90
5492;DHT22;2768;53.540;10.224;2024-01-15T23:17:27;1.00;99.90
5492;DHT22;2768;53.540;10.224;2024-01-15T23:23:22;0.90;99.90
5492;DHT22;2768;53.540;10.224;2024-01-15T23:29:15;1.00;99.90
5492;DHT22;2768;53.540;10.224;2024-01-15T23:35:09;0.90;99.90
5492;DHT22;2768;53.540;10.224;2024-01-15T23:41:04;1.00;99.90
5492;DHT22;2768;53.540;10.224;2024-01-15T23:46:57;1.10;99.90
5492;DHT22;2768;53.540;10.224;2024-01-15T23:52:51;1.00;99.90
5492;DHT22;2768;53.540;10.224;2024-01-15T23:58:45;1.00;99.90
